Time;durP1;ratioP1;P1;durP2;ratioP2;P2;SDS_P1;SDS_P2;PMS_P1;PMS_P2;Temp;Humidity;BMP_temperature;BMP_pressure;BME280_temperature;BME280_humidity;BME280_pressure;Samples;Min_cycle;Max_cycle;Signal;HPM_P1;HPM_P2
2021/05/16 00:02:24;;;;;;;109.45;11.25;;;;;;;;;;5055010;28;20036;-65
2021/05/16 00:04:49;;;;;;;55.20;10.88;;;;;;;;;;5055059;28;20020;-65
2021/05/16 00:07:15;;;;;;;39.67;8.63;;;;;;;;;;5054995;28;20037;-65
2021/05/16 00:09:43;;;;;;;38.65;8.85;;;;;;;;;;5054857;28;20045;-66
2021/05/16 00:12:09;;;;;;;51.42;9.25;;;;;;;;;;5054912;28;20414;-66
2021/05/16 00:14:35;;;;;;;33.33;8.57;;;;;;;;;;5054837;28;20481;-66
2021/05/16 00:17:00;;;;;;;42.95;9.10;;;;;;;;;;5054984;28;20071;-65
2021/05/16 00:19:25;;;;;;;45.58;9.55;;;;;;;;;;5054580;28;20053;-65
2021/05/16 00:21:51;;;;;;;35.97;9.15;;;;;;;;;;5054860;28;20462;-66
2021/05/16 00:24:16;;;;;;;44.40;11.63;;;;;;;;;;5054200;28;20044;-66
2021/05/16 00:26:42;;;;;;;39.20;9.20;;;;;;;;;;5054490;28;20021;-66
2021/05/16 00:29:07;;;;;;;38.08;9.77;;;;;;;;;;5054386;28;20045;-65
2021/05/16 00:31:33;;;;;;;42.08;9.85;;;;;;;;;;5054679;28;20032;-65
2021/05/16 00:33:58;;;;;;;45.30;9.75;;;;;;;;;;5054422;28;20025;-66
2021/05/16 00:36:24;;;;;;;49.83;10.68;;;;;;;;;;5054488;28;20093;-66
2021/05/16 00:38:49;;;;;;;56.83;10.90;;;;;;;;;;5054360;28;20028;-66
2021/05/16 00:41:15;;;;;;;42.25;9.55;;;;;;;;;;5053868;28;20482;-66
2021/05/16 00:43:40;;;;;;;42.30;9.60;;;;;;;;;;5054323;28;20044;-66
2021/05/16 00:46:09;;;;;;;56.25;10.88;;;;;;;;;;5054353;28;20034;-66
2021/05/16 00:48:34;;;;;;;37.70;10.27;;;;;;;;;;5052854;28;20477;-66
2021/05/16 00:50:59;;;;;;;33.63;9.95;;;;;;;;;;5054307;28;20027;-66
2021/05/16 00:53:24;;;;;;;46.75;10.13;;;;;;;;;;5054024;28;20469;-66
2021/05/16 00:55:50;;;;;;;41.38;9.70;;;;;;;;;;5054190;28;20083;-66
2021/05/16 00:58:16;;;;;;;57.35;10.20;;;;;;;;;;5053939;28;20568;-66
2021/05/16 01:00:41;;;;;;;32.25;9.38;;;;;;;;;;5053753;28;20071;-66
2021/05/16 01:03:10;;;;;;;36.83;9.25;;;;;;;;;;5053971;28;20070;-65
2021/05/16 01:05:36;;;;;;;27.52;8.02;;;;;;;;;;5054045;28;20029;-66
2021/05/16 01:08:03;;;;;;;34.35;9.43;;;;;;;;;;5053809;28;20036;-66
2021/05/16 01:10:28;;;;;;;32.63;8.43;;;;;;;;;;5053731;28;20082;-66
2021/05/16 01:12:55;;;;;;;39.00;9.15;;;;;;;;;;5053818;28;20408;-66
2021/05/16 01:15:21;;;;;;;42.22;9.48;;;;;;;;;;5053353;28;20451;-66
2021/05/16 01:17:47;;;;;;;43.45;8.50;;;;;;;;;;5053680;28;20021;-66
2021/05/16 01:20:15;;;;;;;36.20;8.05;;;;;;;;;;5053581;28;20033;-66
2021/05/16 01:22:41;;;;;;;41.03;8.45;;;;;;;;;;5053268;28;20037;-66
2021/05/16 01:25:07;;;;;;;30.30;7.65;;;;;;;;;;5053608;28;20096;-65
2021/05/16 01:27:32;;;;;;;38.03;7.88;;;;;;;;;;5053480;28;20119;-66
2021/05/16 01:29:58;;;;;;;28.90;8.73;;;;;;;;;;5053448;28;20120;-66
2021/05/16 01:32:24;;;;;;;38.08;10.77;;;;;;;;;;5053409;28;20032;-66
2021/05/16 01:34:49;;;;;;;42.30;9.45;;;;;;;;;;5051879;28;20025;-66
2021/05/16 01:37:15;;;;;;;76.13;13.65;;;;;;;;;;5053372;28;20071;-66
2021/05/16 01:39:41;;;;;;;48.05;9.77;;;;;;;;;;5053145;28;20052;-66
2021/05/16 01:42:07;;;;;;;31.23;7.30;;;;;;;;;;5053291;28;20052;-66
2021/05/16 01:44:33;;;;;;;49.33;9.38;;;;;;;;;;5053076;28;20032;-66
2021/05/16 01:47:02;;;;;;;49.47;7.10;;;;;;;;;;5053318;28;20028;-66
2021/05/16 01:49:28;;;;;;;82.45;11.65;;;;;;;;;;5052749;28;20104;-66
2021/05/16 01:51:54;;;;;;;32.72;7.53;;;;;;;;;;5052795;28;20064;-66
2021/05/16 01:54:19;;;;;;;33.17;6.95;;;;;;;;;;5053002;28;20053;-66
2021/05/16 01:56:45;;;;;;;38.78;7.75;;;;;;;;;;5053186;28;20025;-66
2021/05/16 01:59:10;;;;;;;28.60;7.55;;;;;;;;;;5052708;28;20029;-66
2021/05/16 02:01:36;;;;;;;35.03;7.53;;;;;;;;;;5052750;28;20020;-66
2021/05/16 02:04:02;;;;;;;32.95;6.85;;;;;;;;;;5052970;28;20454;-66
2021/05/16 02:06:27;;;;;;;39.22;7.22;;;;;;;;;;5052973;28;20112;-66
2021/05/16 02:08:52;;;;;;;30.52;7.65;;;;;;;;;;5052954;28;20117;-66
2021/05/16 02:11:18;;;;;;;49.67;9.05;;;;;;;;;;5052860;28;20139;-67
2021/05/16 02:13:43;;;;;;;32.35;7.70;;;;;;;;;;5052936;28;20120;-66
2021/05/16 02:16:09;;;;;;;96.28;9.57;;;;;;;;;;5052923;28;20021;-66
2021/05/16 02:18:35;;;;;;;34.20;6.30;;;;;;;;;;5052814;28;20037;-66
2021/05/16 02:21:01;;;;;;;27.65;5.82;;;;;;;;;;5052961;28;20523;-66
2021/05/16 02:23:27;;;;;;;49.10;8.05;;;;;;;;;;5052661;28;20025;-66
2021/05/16 02:25:52;;;;;;;48.70;7.93;;;;;;;;;;5052929;28;20025;-66
2021/05/16 02:28:18;;;;;;;46.25;7.75;;;;;;;;;;5052572;28;20032;-66
2021/05/16 02:30:43;;;;;;;34.13;7.50;;;;;;;;;;5052579;28;20116;-66
2021/05/16 02:33:08;;;;;;;35.67;7.18;;;;;;;;;;5052649;28;20036;-66
2021/05/16 02:35:34;;;;;;;32.22;7.47;;;;;;;;;;5052733;28;20036;-66
2021/05/16 02:37:59;;;;;;;36.35;8.02;;;;;;;;;;5052700;28;20049;-66
2021/05/16 02:40:25;;;;;;;34.78;7.35;;;;;;;;;;5052347;28;20122;-66
2021/05/16 02:42:50;;;;;;;23.55;6.18;;;;;;;;;;5052930;28;20446;-65
2021/05/16 02:45:16;;;;;;;28.75;6.80;;;;;;;;;;5052649;28;20377;-66
2021/05/16 02:47:41;;;;;;;27.55;7.45;;;;;;;;;;5052651;28;20485;-66
2021/05/16 02:50:07;;;;;;;23.88;6.78;;;;;;;;;;5052221;28;20087;-66
2021/05/16 02:52:32;;;;;;;29.35;6.00;;;;;;;;;;5052565;28;20021;-66
2021/05/16 02:54:57;;;;;;;31.40;6.93;;;;;;;;;;5052487;28;20033;-66
2021/05/16 02:57:23;;;;;;;28.95;6.47;;;;;;;;;;5052162;28;20028;-66
2021/05/16 02:59:48;;;;;;;39.30;6.47;;;;;;;;;;5052419;28;20021;-66
2021/05/16 03:02:15;;;;;;;30.88;7.97;;;;;;;;;;5052786;28;20025;-66
2021/05/16 03:04:41;;;;;;;36.42;6.88;;;;;;;;;;5054755;28;20384;-65
2021/05/16 03:07:06;;;;;;;44.35;8.63;;;;;;;;;;5055038;28;20031;-66
2021/05/16 03:09:34;;;;;;;65.32;9.27;;;;;;;;;;5055656;28;20044;-66
2021/05/16 03:11:59;;;;;;;44.67;9.30;;;;;;;;;;5056199;28;20068;-66
2021/05/16 03:14:25;;;;;;;37.30;7.30;;;;;;;;;;5055666;28;20052;-66
2021/05/16 03:16:50;;;;;;;38.05;7.85;;;;;;;;;;5056087;28;20033;-66
2021/05/16 03:19:15;;;;;;;37.95;7.82;;;;;;;;;;5055142;28;20029;-66
2021/05/16 03:21:41;;;;;;;37.30;7.45;;;;;;;;;;5055938;28;20013;-66
2021/05/16 03:24:07;;;;;;;33.67;7.80;;;;;;;;;;5055479;28;20075;-66
2021/05/16 03:26:32;;;;;;;101.25;10.45;;;;;;;;;;5055511;28;20409;-66
2021/05/16 03:28:58;;;;;;;142.18;11.10;;;;;;;;;;5055926;28;20032;-66
2021/05/16 03:31:23;;;;;;;40.40;7.90;;;;;;;;;;5055596;28;20036;-66
2021/05/16 03:33:48;;;;;;;226.38;13.13;;;;;;;;;;5055619;28;20053;-66
2021/05/16 03:36:14;;;;;;;30.80;6.82;;;;;;;;;;5055646;28;20056;-66
2021/05/16 03:38:40;;;;;;;29.45;6.65;;;;;;;;;;5055574;28;20457;-66
2021/05/16 03:41:05;;;;;;;30.38;6.88;;;;;;;;;;5055092;28;20045;-66
2021/05/16 03:43:31;;;;;;;57.35;9.27;;;;;;;;;;5055140;28;20131;-66
2021/05/16 03:45:56;;;;;;;54.33;7.80;;;;;;;;;;5054238;28;20079;-66
2021/05/16 03:48:22;;;;;;;47.15;7.93;;;;;;;;;;5055183;28;20029;-66
2021/05/16 03:50:47;;;;;;;38.25;7.25;;;;;;;;;;5055482;28;20113;-66
2021/05/16 03:53:12;;;;;;;396.90;18.58;;;;;;;;;;5055298;28;20029;-66
2021/05/16 03:55:38;;;;;;;291.92;14.10;;;;;;;;;;5055522;28;20039;-66
2021/05/16 03:58:03;;;;;;;57.90;7.03;;;;;;;;;;5055193;28;20032;-65
2021/05/16 04:00:29;;;;;;;19.13;5.30;;;;;;;;;;5055198;28;20028;-66
2021/05/16 04:02:54;;;;;;;36.88;6.55;;;;;;;;;;5055150;28;20033;-66
2021/05/16 04:05:20;;;;;;;45.67;8.80;;;;;;;;;;5055117;28;20064;-66
2021/05/16 04:07:46;;;;;;;28.98;7.10;;;;;;;;;;5055054;28;20116;-66
2021/05/16 04:10:11;;;;;;;37.38;8.10;;;;;;;;;;5053612;28;20471;-66
2021/05/16 04:12:37;;;;;;;46.95;8.32;;;;;;;;;;5054772;28;20536;-65
2021/05/16 04:15:03;;;;;;;50.78;8.88;;;;;;;;;;5054308;28;20104;-65
2021/05/16 04:17:29;;;;;;;88.78;8.45;;;;;;;;;;5053497;28;20033;-65
2021/05/16 04:19:54;;;;;;;417.33;23.33;;;;;;;;;;5054866;28;20017;-66
2021/05/16 04:22:20;;;;;;;69.00;7.80;;;;;;;;;;5054461;28;20033;-66
2021/05/16 04:24:45;;;;;;;44.17;7.55;;;;;;;;;;5053669;28;20090;-66
2021/05/16 04:27:10;;;;;;;52.78;8.38;;;;;;;;;;5053419;28;20111;-66
2021/05/16 04:29:36;;;;;;;77.88;8.38;;;;;;;;;;5054215;28;20080;-66
2021/05/16 04:32:01;;;;;;;81.78;7.60;;;;;;;;;;5054696;28;20090;-66
2021/05/16 04:34:26;;;;;;;152.43;9.85;;;;;;;;;;5054362;28;20063;-65
2021/05/16 04:36:52;;;;;;;32.35;5.50;;;;;;;;;;5054627;28;20053;-65
2021/05/16 04:39:17;;;;;;;46.42;7.40;;;;;;;;;;5054617;28;20052;-66
2021/05/16 04:41:42;;;;;;;33.20;6.60;;;;;;;;;;5053995;28;20472;-66
2021/05/16 04:44:08;;;;;;;48.13;8.07;;;;;;;;;;5054287;28;20098;-66
2021/05/16 04:46:34;;;;;;;57.15;7.53;;;;;;;;;;5054287;28;20090;-66
2021/05/16 04:48:59;;;;;;;46.03;7.63;;;;;;;;;;5054228;28;20039;-66
2021/05/16 04:51:25;;;;;;;95.50;9.10;;;;;;;;;;5054184;28;20029;-66
2021/05/16 04:53:50;;;;;;;52.67;8.07;;;;;;;;;;5053968;28;20108;-66
2021/05/16 04:56:15;;;;;;;46.20;6.00;;;;;;;;;;5054182;28;20071;-66
2021/05/16 04:58:41;;;;;;;30.73;5.30;;;;;;;;;;5054025;28;20032;-66
2021/05/16 05:01:06;;;;;;;29.38;4.78;;;;;;;;;;5053791;28;20449;-66
2021/05/16 05:03:33;;;;;;;26.75;4.65;;;;;;;;;;5053972;28;20044;-66
2021/05/16 05:05:58;;;;;;;30.55;4.35;;;;;;;;;;5054074;28;20030;-66
2021/05/16 05:08:25;;;;;;;54.88;5.53;;;;;;;;;;5053803;28;20421;-66
2021/05/16 05:10:51;;;;;;;30.85;4.20;;;;;;;;;;5053953;28;20025;-66
2021/05/16 05:13:16;;;;;;;106.78;7.10;;;;;;;;;;5053411;28;20441;-66
2021/05/16 05:15:41;;;;;;;456.75;23.10;;;;;;;;;;5053863;28;20033;-66
2021/05/16 05:18:07;;;;;;;180.93;10.32;;;;;;;;;;5053554;28;20022;-66
2021/05/16 05:20:33;;;;;;;86.07;7.25;;;;;;;;;;5053701;28;20021;-66
2021/05/16 05:22:58;;;;;;;191.07;11.40;;;;;;;;;;5053565;28;20025;-66
2021/05/16 05:25:23;;;;;;;17.67;3.38;;;;;;;;;;5053629;28;20055;-66
2021/05/16 05:27:49;;;;;;;21.33;3.00;;;;;;;;;;5053457;28;20033;-66
2021/05/16 05:30:14;;;;;;;26.55;3.80;;;;;;;;;;5053167;28;20374;-66
2021/05/16 05:32:40;;;;;;;23.65;4.40;;;;;;;;;;5053493;28;20021;-66
2021/05/16 05:35:06;;;;;;;23.77;3.78;;;;;;;;;;5053297;28;20489;-66
2021/05/16 05:37:31;;;;;;;32.70;4.07;;;;;;;;;;5053431;28;20421;-66
2021/05/16 05:39:57;;;;;;;79.07;6.10;;;;;;;;;;5053045;28;20056;-66
2021/05/16 05:42:25;;;;;;;37.47;3.97;;;;;;;;;;5053401;28;20470;-66
2021/05/16 05:44:50;;;;;;;60.67;5.63;;;;;;;;;;5053206;28;20029;-66
2021/05/16 05:47:16;;;;;;;17.02;3.28;;;;;;;;;;5053326;28;20074;-66
2021/05/16 05:49:41;;;;;;;28.42;3.35;;;;;;;;;;5053075;28;20033;-66
2021/05/16 05:52:06;;;;;;;90.82;7.13;;;;;;;;;;5053250;28;20377;-66
2021/05/16 05:54:32;;;;;;;26.17;3.95;;;;;;;;;;5053092;28;20043;-66
2021/05/16 05:56:57;;;;;;;21.75;3.47;;;;;;;;;;5053280;28;20061;-66
2021/05/16 05:59:22;;;;;;;19.17;3.70;;;;;;;;;;5052960;28;20045;-67
2021/05/16 06:01:48;;;;;;;20.13;3.03;;;;;;;;;;5053408;28;20025;-67
2021/05/16 06:04:13;;;;;;;26.98;3.70;;;;;;;;;;5052971;28;20527;-65
2021/05/16 06:06:38;;;;;;;26.02;3.42;;;;;;;;;;5053073;28;20470;-64
2021/05/16 06:09:04;;;;;;;18.83;3.13;;;;;;;;;;5052903;28;20086;-64
2021/05/16 06:11:29;;;;;;;15.95;3.30;;;;;;;;;;5052971;28;20112;-65
2021/05/16 06:13:55;;;;;;;25.13;3.90;;;;;;;;;;5053018;28;20377;-65
2021/05/16 06:16:20;;;;;;;13.50;2.50;;;;;;;;;;5052939;28;20060;-65
2021/05/16 06:18:45;;;;;;;14.55;2.92;;;;;;;;;;5052826;28;20458;-65
2021/05/16 06:21:11;;;;;;;14.80;2.60;;;;;;;;;;5052975;28;20091;-64
2021/05/16 06:23:46;;;;;;;17.13;3.20;;;;;;;;;;5052446;28;20025;-65
2021/05/16 06:26:11;;;;;;;14.10;3.30;;;;;;;;;;5052613;28;20040;-65
2021/05/16 06:28:37;;;;;;;17.40;2.60;;;;;;;;;;5052711;28;20041;-65
2021/05/16 06:31:02;;;;;;;16.58;2.95;;;;;;;;;;5052969;28;20063;-65
2021/05/16 06:33:27;;;;;;;21.75;3.05;;;;;;;;;;5052706;28;20028;-65
2021/05/16 06:35:53;;;;;;;15.40;3.00;;;;;;;;;;5052732;28;20040;-65
2021/05/16 06:38:18;;;;;;;12.30;2.20;;;;;;;;;;5052472;28;20021;-65
2021/05/16 06:40:43;;;;;;;17.13;3.38;;;;;;;;;;5056326;28;20130;-65
2021/05/16 06:43:11;;;;;;;15.50;2.78;;;;;;;;;;5056607;28;20120;-65
2021/05/16 06:45:36;;;;;;;20.85;3.10;;;;;;;;;;5056293;28;20472;-65
2021/05/16 06:48:01;;;;;;;14.88;3.47;;;;;;;;;;5056395;28;20037;-65
2021/05/16 06:50:27;;;;;;;12.85;2.92;;;;;;;;;;5056358;28;20127;-65
2021/05/16 06:52:52;;;;;;;12.85;2.92;;;;;;;;;;5056626;28;20067;-65
2021/05/16 06:55:17;;;;;;;11.68;2.42;;;;;;;;;;5056365;28;20029;-65
2021/05/16 06:57:43;;;;;;;11.05;1.90;;;;;;;;;;5056415;28;20473;-65
2021/05/16 07:00:09;;;;;;;17.05;3.28;;;;;;;;;;5055980;28;20017;-65
2021/05/16 07:02:34;;;;;;;19.30;3.20;;;;;;;;;;5056275;28;20032;-65
2021/05/16 07:04:59;;;;;;;17.08;3.15;;;;;;;;;;5056304;28;20029;-65
2021/05/16 07:07:25;;;;;;;18.27;2.92;;;;;;;;;;5056218;28;20021;-65
2021/05/16 07:09:50;;;;;;;12.13;2.67;;;;;;;;;;5056170;28;20045;-65
2021/05/16 07:12:15;;;;;;;13.90;3.40;;;;;;;;;;5055929;28;20032;-65
2021/05/16 07:14:41;;;;;;;14.35;3.05;;;;;;;;;;5055735;28;20021;-65
2021/05/16 07:17:06;;;;;;;11.35;3.03;;;;;;;;;;5055984;28;20021;-65
2021/05/16 07:19:31;;;;;;;17.98;3.10;;;;;;;;;;5055902;28;20055;-65
2021/05/16 07:21:57;;;;;;;16.27;2.92;;;;;;;;;;5055665;28;20477;-65
2021/05/16 07:24:22;;;;;;;14.25;2.90;;;;;;;;;;5055808;28;20029;-65
2021/05/16 07:26:47;;;;;;;10.75;2.45;;;;;;;;;;5054565;28;20048;-65
2021/05/16 07:29:13;;;;;;;13.98;2.33;;;;;;;;;;5055659;28;20037;-65
2021/05/16 07:31:38;;;;;;;17.60;3.00;;;;;;;;;;5055796;28;20025;-65
2021/05/16 07:34:03;;;;;;;15.68;2.70;;;;;;;;;;5055933;28;20091;-65
2021/05/16 07:36:29;;;;;;;12.27;2.75;;;;;;;;;;5055974;28;20404;-65
2021/05/16 07:38:54;;;;;;;8.82;2.40;;;;;;;;;;5055579;28;20456;-65
2021/05/16 07:41:19;;;;;;;19.33;2.65;;;;;;;;;;5055261;28;20583;-65
2021/05/16 07:43:45;;;;;;;12.10;2.35;;;;;;;;;;5055439;28;20074;-65
2021/05/16 07:46:10;;;;;;;13.18;2.35;;;;;;;;;;5055166;28;20104;-65
2021/05/16 07:48:35;;;;;;;15.32;2.35;;;;;;;;;;5055279;28;20128;-65
2021/05/16 07:51:01;;;;;;;11.70;3.08;;;;;;;;;;5054282;28;20025;-65
2021/05/16 07:53:27;;;;;;;13.98;2.92;;;;;;;;;;5055253;28;20067;-65
2021/05/16 07:55:52;;;;;;;16.02;2.45;;;;;;;;;;5055303;28;20091;-65
2021/05/16 07:58:18;;;;;;;15.93;2.60;;;;;;;;;;5055130;28;20025;-65
2021/05/16 08:00:44;;;;;;;12.93;2.58;;;;;;;;;;5055227;28;20037;-65
2021/05/16 08:03:09;;;;;;;16.83;3.28;;;;;;;;;;5055109;28;20033;-64
2021/05/16 08:05:34;;;;;;;18.98;3.08;;;;;;;;;;5055229;28;20563;-65
2021/05/16 08:07:59;;;;;;;12.20;2.50;;;;;;;;;;5054741;28;20033;-64
2021/05/16 08:10:26;;;;;;;12.57;2.53;;;;;;;;;;5054955;28;20040;-64
2021/05/16 08:12:51;;;;;;;12.48;2.83;;;;;;;;;;5049036;28;20035;-66
2021/05/16 08:15:17;;;;;;;10.57;2.47;;;;;;;;;;5052527;28;20037;-66
2021/05/16 08:17:42;;;;;;;21.10;3.17;;;;;;;;;;5052231;28;20025;-66
2021/05/16 08:20:08;;;;;;;17.92;2.92;;;;;;;;;;5052102;28;20028;-66
2021/05/16 08:22:34;;;;;;;17.10;2.75;;;;;;;;;;5052092;28;20029;-66
2021/05/16 08:25:00;;;;;;;13.32;2.95;;;;;;;;;;5052251;28;20059;-66
2021/05/16 08:27:26;;;;;;;9.63;1.85;;;;;;;;;;5051801;28;20013;-66
2021/05/16 08:29:51;;;;;;;15.35;2.30;;;;;;;;;;5051849;28;20037;-66
2021/05/16 08:32:16;;;;;;;12.52;2.45;;;;;;;;;;5052295;28;20085;-66
2021/05/16 08:34:42;;;;;;;13.60;2.40;;;;;;;;;;5052046;28;20021;-66
2021/05/16 08:37:09;;;;;;;12.95;2.45;;;;;;;;;;5051910;28;20025;-66
2021/05/16 08:39:35;;;;;;;15.88;2.50;;;;;;;;;;5051251;28;20478;-66
2021/05/16 08:42:00;;;;;;;10.98;2.47;;;;;;;;;;5050677;28;20051;-66
2021/05/16 08:44:26;;;;;;;5.70;1.58;;;;;;;;;;5050274;28;20056;-66
2021/05/16 08:46:52;;;;;;;13.38;2.20;;;;;;;;;;5050603;28;20116;-67
2021/05/16 08:49:17;;;;;;;6.70;1.52;;;;;;;;;;5050539;28;20391;-67
2021/05/16 08:51:49;;;;;;;5.88;1.50;;;;;;;;;;5050995;28;20040;-67
2021/05/16 08:54:18;;;;;;;5.07;1.10;;;;;;;;;;5050793;28;20025;-67
2021/05/16 08:56:47;;;;;;;6.53;1.40;;;;;;;;;;5051491;28;20060;-67
2021/05/16 08:59:13;;;;;;;7.35;1.30;;;;;;;;;;5051898;28;20044;-67
2021/05/16 09:01:45;;;;;;;3.58;1.13;;;;;;;;;;5051333;28;20370;-67
2021/05/16 09:04:39;;;;;;;5.15;1.08;;;;;;;;;;5051055;28;20037;-67
2021/05/16 09:07:05;;;;;;;8.52;1.55;;;;;;;;;;5050929;28;20080;-67
2021/05/16 09:09:33;;;;;;;4.80;0.90;;;;;;;;;;5052995;28;20087;-67
2021/05/16 09:12:02;;;;;;;4.38;1.00;;;;;;;;;;5053600;28;20079;-67
2021/05/16 09:14:43;;;;;;;4.15;0.80;;;;;;;;;;5053707;28;20051;-67
2021/05/16 09:17:21;;;;;;;3.95;0.90;;;;;;;;;;5054095;28;20037;-67
2021/05/16 09:19:51;;;;;;;5.35;0.95;;;;;;;;;;5053291;28;20499;-66
2021/05/16 09:22:35;;;;;;;4.68;1.00;;;;;;;;;;5053711;28;20032;-66
2021/05/16 09:25:29;;;;;;;3.03;0.88;;;;;;;;;;5053443;28;20112;-66
2021/05/16 09:28:00;;;;;;;2.58;0.70;;;;;;;;;;5052282;28;20037;-66
2021/05/16 09:30:27;;;;;;;3.30;0.80;;;;;;;;;;5053445;28;20119;-66
2021/05/16 09:32:53;;;;;;;2.25;0.77;;;;;;;;;;5053639;28;20438;-66
2021/05/16 09:35:31;;;;;;;4.63;0.98;;;;;;;;;;5053362;28;20053;-67
2021/05/16 09:37:57;;;;;;;3.17;0.90;;;;;;;;;;5053100;28;20430;-67
2021/05/16 09:40:26;;;;;;;2.83;0.60;;;;;;;;;;5053205;28;20045;-67
2021/05/16 09:43:21;;;;;;;10.75;1.25;;;;;;;;;;5053154;28;20043;-65
2021/05/16 09:45:47;;;;;;;5.05;0.90;;;;;;;;;;5048015;28;20399;-65
2021/05/16 09:48:29;;;;;;;4.88;1.10;;;;;;;;;;5053345;28;20028;-65
2021/05/16 09:51:08;;;;;;;4.15;1.23;;;;;;;;;;5053200;28;20080;-65
2021/05/16 09:53:45;;;;;;;5.38;1.25;;;;;;;;;;5053137;28;20083;-65
2021/05/16 09:56:18;;;;;;;5.90;1.10;;;;;;;;;;5053226;28;20035;-65
2021/05/16 09:58:43;;;;;;;5.50;1.20;;;;;;;;;;5052883;28;20516;-65
2021/05/16 10:01:09;;;;;;;8.20;1.38;;;;;;;;;;5053344;28;20045;-67
2021/05/16 10:03:35;;;;;;;6.07;1.15;;;;;;;;;;5053009;28;20465;-67
2021/05/16 10:06:01;;;;;;;5.13;1.27;;;;;;;;;;5053144;28;20047;-67
2021/05/16 10:08:26;;;;;;;5.60;1.20;;;;;;;;;;5052014;28;20451;-67
2021/05/16 10:10:51;;;;;;;3.33;1.00;;;;;;;;;;5053087;28;20047;-67
2021/05/16 10:13:17;;;;;;;4.22;1.25;;;;;;;;;;5051916;28;20032;-67
2021/05/16 10:15:43;;;;;;;5.13;1.15;;;;;;;;;;5052599;28;20021;-67
2021/05/16 10:18:09;;;;;;;3.20;1.20;;;;;;;;;;5052615;28;20115;-67
2021/05/16 10:20:37;;;;;;;4.07;1.00;;;;;;;;;;5052550;28;20435;-67
2021/05/16 10:23:06;;;;;;;4.07;1.45;;;;;;;;;;5052963;28;20021;-67
2021/05/16 10:25:37;;;;;;;8.85;1.70;;;;;;;;;;5052724;28;20075;-67
2021/05/16 10:28:03;;;;;;;7.30;1.42;;;;;;;;;;5052810;28;20611;-67
2021/05/16 10:30:28;;;;;;;5.60;1.60;;;;;;;;;;5052611;28;20112;-67
2021/05/16 10:32:53;;;;;;;11.55;2.17;;;;;;;;;;5049819;28;20029;-67
2021/05/16 10:35:19;;;;;;;6.25;1.45;;;;;;;;;;5049486;28;20029;-67
2021/05/16 10:37:46;;;;;;;4.65;1.40;;;;;;;;;;5050134;28;20036;-67
2021/05/16 10:40:12;;;;;;;6.93;2.13;;;;;;;;;;5052087;28;20124;-67
2021/05/16 10:42:38;;;;;;;5.65;1.35;;;;;;;;;;5052673;28;20060;-67
2021/05/16 10:45:09;;;;;;;6.82;1.60;;;;;;;;;;5052593;28;20067;-67
2021/05/16 10:47:40;;;;;;;9.50;2.00;;;;;;;;;;5052747;28;20040;-67
2021/05/16 10:50:06;;;;;;;8.57;1.70;;;;;;;;;;5052394;28;20060;-67
2021/05/16 10:52:31;;;;;;;11.95;1.50;;;;;;;;;;5052669;28;20029;-67
2021/05/16 10:54:58;;;;;;;9.32;1.80;;;;;;;;;;5052324;28;20512;-67
2021/05/16 10:57:33;;;;;;;22.52;10.35;;;;;;;;;;5052522;28;20033;-66
2021/05/16 11:00:19;;;;;;;11.48;2.67;;;;;;;;;;5052178;28;20433;-66
2021/05/16 11:02:59;;;;;;;9.30;1.83;;;;;;;;;;5052175;28;20075;-66
2021/05/16 11:05:40;;;;;;;9.90;1.75;;;;;;;;;;5052347;28;20091;-66
2021/05/16 11:08:06;;;;;;;8.82;1.92;;;;;;;;;;5052092;28;20519;-67
2021/05/16 11:10:31;;;;;;;10.07;2.15;;;;;;;;;;5052406;28;20029;-67
2021/05/16 11:13:17;;;;;;;6.35;1.40;;;;;;;;;;5052424;28;20045;-66
2021/05/16 11:15:46;;;;;;;7.15;1.45;;;;;;;;;;5052296;28;20033;-67
2021/05/16 11:18:15;;;;;;;8.43;1.33;;;;;;;;;;5051532;28;20033;-66
2021/05/16 11:20:41;;;;;;;4.05;1.10;;;;;;;;;;5052189;28;20033;-66
2021/05/16 11:23:07;;;;;;;10.02;1.58;;;;;;;;;;5052317;28;20037;-66
2021/05/16 11:25:32;;;;;;;9.23;1.25;;;;;;;;;;5054558;28;20483;-64
2021/05/16 11:27:57;;;;;;;11.43;1.35;;;;;;;;;;5055880;28;20023;-64
2021/05/16 11:30:26;;;;;;;12.35;1.48;;;;;;;;;;5055880;28;20082;-64
2021/05/16 11:32:51;;;;;;;7.97;1.75;;;;;;;;;;5055724;28;20064;-66
2021/05/16 11:35:19;;;;;;;9.23;1.80;;;;;;;;;;5055019;28;20075;-66
2021/05/16 11:37:47;;;;;;;9.15;2.00;;;;;;;;;;5055501;28;20033;-66
2021/05/16 11:40:20;;;;;;;8.35;1.58;;;;;;;;;;5055116;28;20053;-66
2021/05/16 11:42:46;;;;;;;14.45;2.20;;;;;;;;;;5055601;28;20025;-66
2021/05/16 11:45:11;;;;;;;9.35;2.58;;;;;;;;;;5055417;28;20398;-66
2021/05/16 11:47:41;;;;;;;8.63;1.55;;;;;;;;;;5054987;28;20096;-66
2021/05/16 11:50:07;;;;;;;5.22;1.10;;;;;;;;;;5055286;28;20119;-66
2021/05/16 11:52:33;;;;;;;7.25;1.30;;;;;;;;;;5055188;28;20527;-66
2021/05/16 11:55:08;;;;;;;6.32;1.38;;;;;;;;;;5054915;28;20021;-66
2021/05/16 11:57:41;;;;;;;7.70;1.20;;;;;;;;;;5055346;28;20033;-66
2021/05/16 12:00:07;;;;;;;4.22;0.80;;;;;;;;;;5055046;28;20082;-66
2021/05/16 12:02:36;;;;;;;5.18;0.90;;;;;;;;;;5055209;28;20017;-66
2021/05/16 12:05:02;;;;;;;6.05;1.20;;;;;;;;;;5055118;28;20047;-66
2021/05/16 12:07:30;;;;;;;4.55;1.15;;;;;;;;;;5055009;28;20448;-66
2021/05/16 12:09:56;;;;;;;4.25;0.90;;;;;;;;;;5054882;28;20041;-66
2021/05/16 12:12:23;;;;;;;9.90;1.60;;;;;;;;;;5050690;28;20032;-66
2021/05/16 12:14:49;;;;;;;6.63;1.27;;;;;;;;;;5053259;28;20036;-66
2021/05/16 12:17:15;;;;;;;6.90;1.90;;;;;;;;;;5053864;28;20358;-66
2021/05/16 12:19:40;;;;;;;13.98;2.05;;;;;;;;;;5054320;28;20040;-66
2021/05/16 12:22:07;;;;;;;11.27;1.15;;;;;;;;;;5053913;28;20441;-66
2021/05/16 12:24:37;;;;;;;10.13;1.55;;;;;;;;;;5054237;28;20017;-66
2021/05/16 12:27:06;;;;;;;11.18;1.80;;;;;;;;;;5053710;28;20033;-66
2021/05/16 12:29:33;;;;;;;9.02;1.30;;;;;;;;;;5054286;28;20059;-66
2021/05/16 12:31:58;;;;;;;8.10;1.40;;;;;;;;;;5054137;28;20396;-66
2021/05/16 12:34:24;;;;;;;10.00;1.42;;;;;;;;;;5053931;28;20306;-66
2021/05/16 12:36:57;;;;;;;7.65;1.48;;;;;;;;;;5052956;28;20090;-66
2021/05/16 12:39:39;;;;;;;7.70;1.38;;;;;;;;;;5053782;28;20079;-66
2021/05/16 12:42:44;;;;;;;7.25;1.27;;;;;;;;;;5053222;28;20098;-66
2021/05/16 12:45:19;;;;;;;7.40;1.25;;;;;;;;;;5031236;28;20037;-66
2021/05/16 12:47:53;;;;;;;7.75;1.35;;;;;;;;;;5030830;28;20041;-66
2021/05/16 12:50:18;;;;;;;8.05;1.50;;;;;;;;;;5044183;28;20048;-66
2021/05/16 12:52:44;;;;;;;8.82;1.27;;;;;;;;;;5053955;28;20131;-66
2021/05/16 12:55:25;;;;;;;6.72;1.48;;;;;;;;;;5053405;28;20433;-66
2021/05/16 12:57:58;;;;;;;5.30;1.02;;;;;;;;;;5052919;28;20478;-66
2021/05/16 13:00:30;;;;;;;3.78;1.10;;;;;;;;;;5053212;28;20065;-66
2021/05/16 13:03:04;;;;;;;7.25;1.02;;;;;;;;;;5053502;28;20065;-66
2021/05/16 13:05:29;;;;;;;3.33;0.80;;;;;;;;;;5053529;28;20033;-66
2021/05/16 13:07:55;;;;;;;5.75;1.52;;;;;;;;;;5053035;28;20027;-66
2021/05/16 13:10:39;;;;;;;4.18;1.13;;;;;;;;;;5053067;28;20416;-66
2021/05/16 13:13:05;;;;;;;3.85;1.02;;;;;;;;;;5047977;28;20029;-66
2021/05/16 13:15:32;;;;;;;7.82;1.65;;;;;;;;;;5051086;28;20071;-66
2021/05/16 13:17:57;;;;;;;4.65;1.15;;;;;;;;;;5050244;28;20036;-66
2021/05/16 13:20:22;;;;;;;6.47;1.48;;;;;;;;;;5050391;28;20113;-66
2021/05/16 13:22:48;;;;;;;5.55;1.23;;;;;;;;;;5050211;28;20112;-66
2021/05/16 13:25:17;;;;;;;6.25;0.80;;;;;;;;;;5050649;28;20091;-66
2021/05/16 13:27:52;;;;;;;2.38;0.90;;;;;;;;;;5049985;28;20048;-67
2021/05/16 13:30:17;;;;;;;3.50;1.15;;;;;;;;;;5050615;28;20416;-66
2021/05/16 13:32:43;;;;;;;5.10;1.02;;;;;;;;;;5050416;28;20036;-66
2021/05/16 13:35:08;;;;;;;5.53;1.42;;;;;;;;;;5049866;28;20551;-66
2021/05/16 13:37:33;;;;;;;2.45;0.60;;;;;;;;;;5049896;28;20143;-66
2021/05/16 13:39:59;;;;;;;7.65;1.27;;;;;;;;;;5050408;28;20095;-66
2021/05/16 13:42:24;;;;;;;3.22;1.00;;;;;;;;;;5049785;28;20017;-67
2021/05/16 13:44:50;;;;;;;3.00;0.75;;;;;;;;;;5049904;28;20032;-66
2021/05/16 13:47:15;;;;;;;4.53;1.05;;;;;;;;;;5049933;28;20115;-66
2021/05/16 13:49:40;;;;;;;6.45;0.93;;;;;;;;;;5050657;28;20036;-67
2021/05/16 13:52:06;;;;;;;2.75;0.77;;;;;;;;;;5052539;28;20029;-66
2021/05/16 13:54:31;;;;;;;3.38;0.70;;;;;;;;;;5052186;28;20734;-67
2021/05/16 13:56:57;;;;;;;2.95;0.80;;;;;;;;;;5052096;28;20025;-66
2021/05/16 13:59:23;;;;;;;2.72;0.68;;;;;;;;;;5051411;28;20037;-67
2021/05/16 14:01:48;;;;;;;7.05;1.33;;;;;;;;;;5052296;28;20025;-66
2021/05/16 14:04:13;;;;;;;2.22;0.77;;;;;;;;;;5052055;28;20377;-66
2021/05/16 14:06:39;;;;;;;4.03;1.00;;;;;;;;;;5052499;28;20029;-66
2021/05/16 14:09:06;;;;;;;4.97;1.15;;;;;;;;;;5051538;28;20045;-66
2021/05/16 14:11:31;;;;;;;3.72;0.93;;;;;;;;;;5052538;28;20108;-66
2021/05/16 14:13:59;;;;;;;3.20;0.93;;;;;;;;;;5052268;28;20113;-67
2021/05/16 14:16:24;;;;;;;3.40;1.00;;;;;;;;;;5052437;28;20044;-67
2021/05/16 14:18:50;;;;;;;3.05;0.75;;;;;;;;;;5052230;28;20029;-66
2021/05/16 14:21:15;;;;;;;5.15;1.13;;;;;;;;;;5051959;28;20083;-66
2021/05/16 14:23:40;;;;;;;2.72;0.95;;;;;;;;;;5052256;28;20117;-66
2021/05/16 14:26:06;;;;;;;5.90;0.82;;;;;;;;;;5051935;28;20052;-67
2021/05/16 14:28:31;;;;;;;5.75;0.98;;;;;;;;;;5059338;28;20044;-67
2021/05/16 14:30:56;;;;;;;2.88;0.93;;;;;;;;;;5071802;28;20033;-66
2021/05/16 14:33:22;;;;;;;2.83;0.63;;;;;;;;;;5070901;28;20035;-67